Time;durP1;ratioP1;P1;durP2;ratioP2;P2;SDS_P1;SDS_P2;PMS_P1;PMS_P2;Temp;Humidity;BMP_temperature;BMP_pressure;BME280_temperature;BME280_humidity;BME280_pressure;Samples;Min_cycle;Max_cycle;Signal;HPM_P1;HPM_P2
2023/08/07 00:00:44;;;;;;;5.32;2.33;;;16.00;81.80;;;;;;5031181;28;20055;-50
2023/08/07 00:03:11;;;;;;;4.78;2.88;;;16.00;81.90;;;;;;5032881;28;20072;-49
2023/08/07 00:05:38;;;;;;;3.78;2.05;;;16.00;81.90;;;;;;5032273;28;20041;-51
2023/08/07 00:08:07;;;;;;;4.95;1.80;;;15.90;82.00;;;;;;5031866;28;20042;-49
2023/08/07 00:10:34;;;;;;;7.35;2.70;;;15.90;82.00;;;;;;5031684;28;20475;-50
2023/08/07 00:13:01;;;;;;;8.05;2.17;;;15.90;82.00;;;;;;5032399;28;20083;-53
2023/08/07 00:15:33;;;;;;;7.55;2.50;;;15.90;81.90;;;;;;5031862;28;20458;-48
2023/08/07 00:18:00;;;;;;;5.63;2.80;;;15.90;81.90;;;;;;5027354;28;20048;-52
2023/08/07 00:20:27;;;;;;;6.50;2.25;;;15.90;82.20;;;;;;5027509;28;20216;-48
2023/08/07 00:22:53;;;;;;;9.32;3.28;;;15.90;82.40;;;;;;5031222;28;20073;-53
2023/08/07 00:25:20;;;;;;;4.10;1.80;;;15.90;82.30;;;;;;5031805;28;20046;-51
2023/08/07 00:27:52;;;;;;;6.88;2.55;;;15.90;82.20;;;;;;5024990;28;20038;-51
2023/08/07 00:30:19;;;;;;;6.88;4.47;;;15.90;82.30;;;;;;5030725;28;20696;-51
2023/08/07 00:32:46;;;;;;;5.82;2.40;;;15.90;82.30;;;;;;5031052;28;20535;-50
2023/08/07 00:35:14;;;;;;;5.63;2.70;;;15.90;82.20;;;;;;5031904;28;20088;-49
2023/08/07 00:37:42;;;;;;;10.00;2.58;;;15.90;82.20;;;;;;5031009;28;20076;-53
2023/08/07 00:40:10;;;;;;;6.38;2.75;;;15.90;82.10;;;;;;5042252;28;20046;-53
2023/08/07 00:42:38;;;;;;;9.00;2.50;;;15.90;82.10;;;;;;5030547;28;20118;-53
2023/08/07 00:45:05;;;;;;;5.75;2.45;;;16.00;82.30;;;;;;5030091;28;20115;-49
2023/08/07 00:47:35;;;;;;;6.53;3.10;;;16.00;82.30;;;;;;5032883;28;20596;-52
2023/08/07 00:50:03;;;;;;;6.75;2.70;;;16.00;82.30;;;;;;5029561;28;20044;-53
2023/08/07 00:52:33;;;;;;;9.35;2.80;;;16.00;82.00;;;;;;5030374;28;20045;-50
2023/08/07 00:55:03;;;;;;;7.88;2.50;;;16.00;81.90;;;;;;5029631;28;20096;-50
2023/08/07 00:57:30;;;;;;;9.07;2.92;;;16.00;82.00;;;;;;5030515;28;20046;-52
2023/08/07 01:00:07;;;;;;;8.52;2.55;;;16.10;82.00;;;;;;5028741;28;20057;-53
2023/08/07 01:02:34;;;;;;;9.10;3.08;;;16.10;81.70;;;;;;5031000;28;20045;-53
2023/08/07 01:05:01;;;;;;;7.65;2.38;;;16.10;82.40;;;;;;5028472;28;20078;-50
2023/08/07 01:07:28;;;;;;;10.38;3.58;;;16.10;82.40;;;;;;5031727;28;20476;-51
2023/08/07 01:09:57;;;;;;;7.40;2.85;;;16.10;81.70;;;;;;5030077;28;20539;-51
2023/08/07 01:12:35;;;;;;;7.82;3.60;;;16.10;81.80;;;;;;5031205;28;20096;-51
2023/08/07 01:15:30;;;;;;;7.80;2.58;;;16.10;82.00;;;;;;5029433;28;20084;-53
2023/08/07 01:17:58;;;;;;;4.78;2.80;;;16.30;81.80;;;;;;5028991;28;20041;-51
2023/08/07 01:20:29;;;;;;;5.07;2.88;;;16.10;81.50;;;;;;5029799;28;20045;-48
2023/08/07 01:22:56;;;;;;;7.95;3.28;;;16.20;81.30;;;;;;5023076;28;20065;-53
2023/08/07 01:25:32;;;;;;;;;;;;;;;;;;;;;
2023/08/07 01:28:11;;;;;;;10.02;2.90;;;16.10;81.10;;;;;;5030223;28;20424;-53
2023/08/07 01:30:45;;;;;;;7.85;3.55;;;16.20;81.30;;;;;;5026080;28;20049;-53
2023/08/07 01:33:19;;;;;;;6.97;2.97;;;16.10;81.20;;;;;;5023608;28;20508;-52
2023/08/07 01:35:51;;;;;;;7.65;2.65;;;16.10;81.30;;;;;;5031176;28;20600;-52
2023/08/07 01:38:23;;;;;;;10.20;2.90;;;16.10;81.30;;;;;;5025892;28;20049;-53
2023/08/07 01:40:54;;;;;;;8.52;2.80;;;16.10;81.20;;;;;;5030416;28;20069;-49
2023/08/07 01:43:21;;;;;;;9.38;3.83;;;16.10;81.30;;;;;;5029116;28;20080;-52
2023/08/07 01:45:47;;;;;;;10.40;3.28;;;16.10;81.50;;;;;;5027766;28;20506;-49
2023/08/07 01:48:17;;;;;;;7.97;2.60;;;16.00;81.60;;;;;;5029050;28;20095;-53
2023/08/07 01:50:44;;;;;;;5.65;2.97;;;16.00;81.60;;;;;;5030153;28;20495;-53
2023/08/07 01:53:11;;;;;;;5.07;2.55;;;16.00;81.60;;;;;;5037185;28;20045;-49
2023/08/07 01:55:40;;;;;;;6.90;2.30;;;16.00;81.80;;;;;;5030737;28;20038;-50
2023/08/07 01:58:10;;;;;;;11.45;3.10;;;16.00;81.80;;;;;;5021234;28;20507;-52
2023/08/07 02:00:37;;;;;;;10.60;3.17;;;15.90;82.40;;;;;;5027739;28;20102;-53
2023/08/07 02:03:03;;;;;;;8.65;2.63;;;15.90;81.80;;;;;;5030206;28;20049;-50
2023/08/07 02:05:33;;;;;;;6.72;2.65;;;15.90;81.60;;;;;;5028803;28;20056;-49
2023/08/07 02:08:03;;;;;;;10.02;2.88;;;15.90;81.60;;;;;;5025856;28;20072;-51
2023/08/07 02:10:30;;;;;;;10.65;2.28;;;15.90;81.60;;;;;;5029602;28;20045;-48
2023/08/07 02:12:59;;;;;;;5.55;2.72;;;15.90;81.60;;;;;;5028452;28;20049;-49
2023/08/07 02:15:27;;;;;;;4.93;1.85;;;15.90;81.60;;;;;;5028399;28;20045;-48
2023/08/07 02:17:54;;;;;;;6.03;2.20;;;15.90;81.30;;;;;;5023585;28;20115;-52
2023/08/07 02:20:23;;;;;;;5.70;2.22;;;15.90;81.40;;;;;;5029295;28;20091;-50
2023/08/07 02:22:50;;;;;;;6.07;2.88;;;15.90;81.40;;;;;;5027711;28;20053;-53
2023/08/07 02:25:23;;;;;;;6.57;2.50;;;15.80;81.30;;;;;;5029641;28;20099;-53
2023/08/07 02:27:51;;;;;;;10.30;4.15;;;15.80;81.20;;;;;;5027613;28;20053;-49
2023/08/07 02:30:20;;;;;;;7.88;2.17;;;15.80;81.20;;;;;;5029089;28;20484;-49
2023/08/07 02:32:49;;;;;;;6.00;2.22;;;15.80;81.10;;;;;;5026350;28;20076;-51
2023/08/07 02:35:16;;;;;;;4.10;2.40;;;15.80;81.00;;;;;;5029007;28;20765;-50
2023/08/07 02:37:43;;;;;;;8.43;2.42;;;15.80;81.00;;;;;;5028492;28;20048;-51
2023/08/07 02:40:15;;;;;;;9.35;2.70;;;15.80;81.00;;;;;;5030244;28;20050;-50
2023/08/07 02:42:43;;;;;;;10.20;3.35;;;15.80;80.90;;;;;;5028233;28;20137;-51
2023/08/07 02:45:10;;;;;;;10.57;2.50;;;15.80;80.80;;;;;;5027623;28;20057;-52
2023/08/07 02:47:40;;;;;;;6.38;2.85;;;15.80;80.80;;;;;;5023856;28;20755;-53
2023/08/07 02:50:11;;;;;;;5.63;2.42;;;15.80;80.90;;;;;;5029958;28;20061;-49
2023/08/07 02:52:39;;;;;;;5.63;2.10;;;15.70;81.00;;;;;;5029002;28;20049;-52
2023/08/07 02:55:06;;;;;;;7.32;2.50;;;15.70;80.80;;;;;;5025741;28;20099;-50
2023/08/07 02:57:33;;;;;;;5.22;2.47;;;15.70;80.80;;;;;;5028366;28;20087;-52
2023/08/07 03:00:02;;;;;;;6.20;2.35;;;15.70;81.00;;;;;;5028505;28;20038;-53
2023/08/07 03:02:32;;;;;;;9.55;3.40;;;15.70;80.90;;;;;;5027337;28;20052;-51
2023/08/07 03:05:04;;;;;;;10.55;2.55;;;15.80;80.90;;;;;;5029822;28;20042;-51
2023/08/07 03:07:30;;;;;;;7.22;2.53;;;15.80;80.80;;;;;;5025182;28;20056;-49
2023/08/07 03:09:59;;;;;;;7.43;2.45;;;15.80;80.80;;;;;;5028147;28;20042;-49
2023/08/07 03:12:26;;;;;;;6.25;3.03;;;15.70;80.60;;;;;;5024117;28;20149;-52
2023/08/07 03:14:53;;;;;;;4.30;2.90;;;15.80;80.60;;;;;;5024243;28;20095;-51
2023/08/07 03:17:20;;;;;;;7.03;2.38;;;15.80;80.70;;;;;;5025696;28;20065;-53
2023/08/07 03:19:47;;;;;;;5.40;2.20;;;15.80;80.90;;;;;;5027668;28;20635;-53
2023/08/07 03:22:13;;;;;;;4.05;2.50;;;15.70;80.80;;;;;;5027063;28;20041;-50
2023/08/07 03:24:40;;;;;;;5.35;2.88;;;15.70;80.80;;;;;;5027009;28;20061;-54
2023/08/07 03:27:07;;;;;;;6.82;2.50;;;15.80;80.70;;;;;;5027963;28;20407;-50
2023/08/07 03:29:34;;;;;;;7.47;2.58;;;15.80;80.60;;;;;;5025206;28;20549;-51
2023/08/07 03:32:01;;;;;;;7.20;2.30;;;15.80;80.70;;;;;;5030505;28;20092;-49
2023/08/07 03:34:30;;;;;;;6.25;2.25;;;15.80;80.60;;;;;;5027244;28;20037;-53
2023/08/07 03:37:01;;;;;;;5.75;2.58;;;15.70;80.60;;;;;;5026544;28;20061;-51
2023/08/07 03:39:30;;;;;;;6.07;2.80;;;15.70;80.60;;;;;;5025954;28;20099;-50
2023/08/07 03:41:59;;;;;;;5.57;2.58;;;15.70;80.80;;;;;;5014577;28;20030;-49
2023/08/07 03:44:27;;;;;;;5.35;2.45;;;15.70;80.80;;;;;;5028617;28;20034;-51
2023/08/07 03:46:57;;;;;;;7.32;3.15;;;15.70;80.90;;;;;;5026027;28;20462;-52
2023/08/07 03:49:24;;;;;;;5.00;2.42;;;15.70;80.90;;;;;;5022974;28;20025;-52
2023/08/07 03:51:52;;;;;;;4.18;2.10;;;15.70;81.10;;;;;;5025047;28;20132;-53
2023/08/07 03:54:22;;;;;;;5.43;2.55;;;15.70;81.40;;;;;;5021628;28;20640;-51
2023/08/07 03:56:51;;;;;;;8.82;2.83;;;15.70;81.50;;;;;;5028224;28;20400;-53
2023/08/07 03:59:20;;;;;;;8.00;3.20;;;15.70;81.50;;;;;;5027493;28;20047;-53
2023/08/07 04:01:46;;;;;;;6.97;2.95;;;15.70;82.00;;;;;;5026985;28;20037;-54
2023/08/07 04:04:14;;;;;;;6.95;2.50;;;15.80;81.60;;;;;;5026960;28;20137;-49
2023/08/07 04:06:43;;;;;;;8.68;3.58;;;15.80;81.50;;;;;;5028856;28;20029;-51
2023/08/07 04:09:13;;;;;;;9.57;3.00;;;15.80;81.30;;;;;;5028480;28;20041;-53
2023/08/07 04:11:40;;;;;;;6.90;2.70;;;15.80;81.30;;;;;;5039862;28;20037;-53
2023/08/07 04:14:09;;;;;;;7.10;2.58;;;15.80;81.30;;;;;;5028697;28;20072;-54
2023/08/07 04:16:37;;;;;;;4.45;2.35;;;15.90;81.40;;;;;;5025371;28;20540;-52
2023/08/07 04:19:07;;;;;;;7.00;2.50;;;15.90;81.20;;;;;;5024855;28;20073;-53
2023/08/07 04:21:37;;;;;;;9.13;3.28;;;15.90;81.20;;;;;;5027591;28;20523;-51
2023/08/07 04:24:10;;;;;;;5.65;2.95;;;15.90;81.00;;;;;;5028111;28;20103;-49
2023/08/07 04:26:37;;;;;;;9.57;2.70;;;15.90;80.80;;;;;;5023950;28;20067;-51
2023/08/07 04:29:05;;;;;;;6.35;2.55;;;15.90;80.60;;;;;;5025265;28;20119;-51
2023/08/07 04:31:32;;;;;;;3.63;2.50;;;15.90;80.50;;;;;;5026093;28;20500;-53
2023/08/07 04:34:02;;;;;;;8.98;2.95;;;16.10;80.70;;;;;;5026739;28;20051;-53
2023/08/07 04:36:33;;;;;;;4.22;2.10;;;15.90;80.50;;;;;;5028483;28;20061;-49
2023/08/07 04:38:59;;;;;;;6.18;2.42;;;15.90;80.60;;;;;;5028050;28;20499;-51
2023/08/07 04:41:28;;;;;;;6.65;2.30;;;15.90;80.80;;;;;;5031205;28;20504;-51
2023/08/07 04:43:57;;;;;;;6.53;2.90;;;15.90;81.20;;;;;;5031841;28;20137;-51
2023/08/07 04:46:25;;;;;;;4.28;2.90;;;15.90;81.10;;;;;;5025486;28;20052;-50
2023/08/07 04:48:52;;;;;;;5.07;2.80;;;15.90;80.90;;;;;;5028882;28;20045;-53
2023/08/07 04:51:19;;;;;;;7.40;2.90;;;15.90;80.80;;;;;;5030801;28;20049;-52
2023/08/07 04:53:45;;;;;;;6.07;2.30;;;16.00;80.80;;;;;;5023079;28;20061;-52
2023/08/07 04:56:12;;;;;;;8.07;2.95;;;16.00;80.90;;;;;;5027425;28;20107;-51
2023/08/07 04:58:39;;;;;;;7.32;3.20;;;16.00;80.60;;;;;;5028700;28;20054;-54
2023/08/07 05:01:06;;;;;;;9.75;2.95;;;16.00;80.40;;;;;;5030403;28;20064;-52
2023/08/07 05:03:33;;;;;;;7.00;2.55;;;16.30;80.30;;;;;;5031223;28;20045;-51
2023/08/07 05:06:01;;;;;;;6.13;2.90;;;16.10;80.00;;;;;;5028042;28;20095;-52
2023/08/07 05:08:28;;;;;;;4.13;2.55;;;16.10;79.90;;;;;;5030112;28;20121;-54
2023/08/07 05:10:54;;;;;;;8.02;2.80;;;16.10;80.00;;;;;;5023381;28;20037;-52
2023/08/07 05:13:21;;;;;;;6.18;2.95;;;16.10;79.70;;;;;;5021771;28;20107;-52
2023/08/07 05:15:51;;;;;;;6.15;2.30;;;16.10;79.70;;;;;;5024581;28;20847;-54
2023/08/07 05:18:17;;;;;;;5.65;2.45;;;16.10;79.70;;;;;;5024021;28;20073;-54
2023/08/07 05:20:44;;;;;;;5.93;2.53;;;16.10;79.40;;;;;;5026462;28;20069;-54
2023/08/07 05:23:12;;;;;;;6.63;2.80;;;16.10;79.40;;;;;;5029869;28;20321;-53
2023/08/07 05:25:39;;;;;;;5.00;2.40;;;16.10;79.30;;;;;;5029355;28;20049;-52
2023/08/07 05:28:05;;;;;;;5.32;3.28;;;16.10;79.10;;;;;;5029979;28;20057;-54
2023/08/07 05:30:32;;;;;;;9.00;2.85;;;16.20;79.10;;;;;;5023967;28;20274;-54
2023/08/07 05:32:59;;;;;;;4.40;2.15;;;16.10;79.00;;;;;;5021657;28;20068;-53
2023/08/07 05:35:26;;;;;;;7.47;2.83;;;16.20;79.00;;;;;;5029430;28;20112;-54
2023/08/07 05:37:53;;;;;;;6.72;3.22;;;16.20;78.90;;;;;;5029886;28;20069;-53
2023/08/07 05:40:22;;;;;;;6.93;2.33;;;16.20;78.90;;;;;;5028844;28;20046;-52
2023/08/07 05:42:49;;;;;;;4.97;2.72;;;16.20;78.80;;;;;;5027194;28;20064;-53
2023/08/07 05:45:16;;;;;;;6.07;2.42;;;16.20;78.90;;;;;;5029935;28;20112;-50
2023/08/07 05:47:43;;;;;;;4.70;2.40;;;16.20;78.80;;;;;;5029140;28;20135;-54
2023/08/07 05:50:10;;;;;;;6.80;2.70;;;16.20;78.90;;;;;;5028730;28;20136;-52
2023/08/07 05:52:36;;;;;;;7.05;2.70;;;16.30;78.80;;;;;;5029704;28;20037;-54
2023/08/07 05:55:04;;;;;;;7.32;2.78;;;16.20;78.60;;;;;;5029659;28;20084;-54
2023/08/07 05:57:33;;;;;;;5.47;3.15;;;16.30;78.80;;;;;;5024191;28;20034;-52
2023/08/07 06:00:00;;;;;;;6.97;2.80;;;16.30;78.90;;;;;;5026640;28;20037;-52
2023/08/07 06:02:37;;;;;;;7.22;2.88;;;16.30;78.80;;;;;;5027168;28;20045;-54
2023/08/07 06:05:04;;;;;;;3.22;2.15;;;16.30;78.90;;;;;;5029254;28;20072;-53
2023/08/07 06:07:31;;;;;;;9.15;3.10;;;16.30;78.60;;;;;;5023736;28;20050;-54
2023/08/07 06:09:58;;;;;;;5.85;2.50;;;16.30;78.50;;;;;;5028370;28;20092;-54
2023/08/07 06:12:25;;;;;;;4.20;2.38;;;16.30;78.40;;;;;;5028423;28;20156;-54
2023/08/07 06:14:54;;;;;;;6.35;2.65;;;16.30;78.30;;;;;;5026484;28;20513;-53
2023/08/07 06:17:21;;;;;;;5.10;2.85;;;16.30;78.30;;;;;;5024119;28;20069;-54
2023/08/07 06:19:48;;;;;;;3.67;2.60;;;16.20;78.30;;;;;;5027436;28;20504;-54
2023/08/07 06:22:15;;;;;;;6.50;2.30;;;16.20;78.50;;;;;;5030850;28;20049;-51
2023/08/07 06:24:41;;;;;;;6.22;2.45;;;16.20;78.90;;;;;;5029801;28;20041;-54
2023/08/07 06:27:08;;;;;;;6.50;2.53;;;16.10;78.70;;;;;;5028676;28;20072;-53
2023/08/07 06:29:34;;;;;;;6.80;2.33;;;16.10;78.60;;;;;;5023184;28;20038;-54
2023/08/07 06:32:01;;;;;;;6.10;3.17;;;16.10;78.70;;;;;;5026215;28;20043;-53
2023/08/07 06:34:28;;;;;;;6.22;2.63;;;16.00;78.80;;;;;;5029443;28;20042;-52
2023/08/07 06:37:08;;;;;;;4.78;2.35;;;16.00;78.80;;;;;;5028939;28;20041;-54
2023/08/07 06:39:34;;;;;;;4.95;2.65;;;16.00;79.30;;;;;;5006930;28;20045;-53
2023/08/07 06:42:01;;;;;;;4.05;2.33;;;16.00;79.50;;;;;;5007789;28;20547;-52
2023/08/07 06:44:33;;;;;;;4.63;2.30;;;15.90;79.40;;;;;;5007578;28;20046;-49
2023/08/07 06:47:00;;;;;;;6.72;3.17;;;16.00;79.50;;;;;;5012686;28;20132;-50
2023/08/07 06:49:26;;;;;;;4.55;2.30;;;15.90;79.50;;;;;;5009983;28;20073;-50
2023/08/07 06:51:53;;;;;;;7.57;2.72;;;15.90;79.70;;;;;;5009296;28;20120;-51
2023/08/07 06:54:20;;;;;;;8.05;2.95;;;15.90;80.20;;;;;;5009006;28;20463;-53
2023/08/07 06:56:47;;;;;;;7.72;3.20;;;15.90;80.40;;;;;;5008626;28;20041;-56
2023/08/07 06:59:13;;;;;;;4.10;2.70;;;15.90;80.60;;;;;;5008424;28;20056;-55
2023/08/07 07:01:40;;;;;;;6.57;2.90;;;15.90;80.50;;;;;;5009101;28;20120;-55
2023/08/07 07:04:07;;;;;;;6.70;3.53;;;15.90;80.20;;;;;;5009583;28;20041;-54
2023/08/07 07:06:34;;;;;;;5.95;2.72;;;15.90;80.30;;;;;;5009554;28;20424;-53
2023/08/07 07:09:00;;;;;;;8.63;2.97;;;15.90;80.20;;;;;;5006181;28;20556;-54
2023/08/07 07:11:27;;;;;;;5.28;2.28;;;16.00;80.30;;;;;;5007777;28;20136;-56
2023/08/07 07:13:54;;;;;;;5.30;2.80;;;16.00;80.50;;;;;;5009866;28;20061;-51
2023/08/07 07:16:21;;;;;;;7.68;2.70;;;16.00;80.50;;;;;;5007265;28;20049;-55
2023/08/07 07:18:51;;;;;;;4.30;2.75;;;16.10;80.40;;;;;;5005049;28;20046;-52
2023/08/07 07:21:18;;;;;;;8.40;3.25;;;16.10;80.30;;;;;;5001366;28;20633;-52
2023/08/07 07:23:45;;;;;;;9.70;3.65;;;16.10;80.30;;;;;;5005755;28;20049;-54
2023/08/07 07:26:12;;;;;;;6.13;2.72;;;16.20;80.30;;;;;;5008328;28;20121;-54
2023/08/07 07:28:38;;;;;;;6.93;2.72;;;16.20;80.40;;;;;;4985716;28;20069;-54
2023/08/07 07:31:05;;;;;;;7.28;2.95;;;16.30;80.50;;;;;;5007390;28;20098;-54
2023/08/07 07:33:32;;;;;;;6.78;2.42;;;16.30;80.50;;;;;;5006445;28;20033;-51
2023/08/07 07:35:58;;;;;;;6.97;2.58;;;16.40;80.30;;;;;;5008747;28;20042;-53
2023/08/07 07:38:26;;;;;;;6.63;3.00;;;16.50;80.60;;;;;;5007590;28;20052;-53
2023/08/07 07:40:56;;;;;;;3.83;1.95;;;16.70;80.00;;;;;;5006860;28;20132;-50
2023/08/07 07:43:23;;;;;;;7.28;2.63;;;16.70;79.70;;;;;;5005575;28;20471;-54
2023/08/07 07:45:50;;;;;;;5.43;2.53;;;16.80;79.50;;;;;;5008277;28;20069;-53
2023/08/07 07:48:16;;;;;;;6.13;2.28;;;16.90;79.30;;;;;;5006739;28;20385;-53
2023/08/07 07:50:43;;;;;;;4.65;2.20;;;17.00;79.10;;;;;;5003014;28;20042;-51
2023/08/07 07:53:09;;;;;;;4.60;2.00;;;17.00;79.00;;;;;;5008260;28;20121;-54
2023/08/07 07:55:37;;;;;;;4.13;1.98;;;17.10;78.60;;;;;;5008422;28;20049;-53
2023/08/07 07:58:04;;;;;;;5.85;2.63;;;17.20;78.50;;;;;;5005398;28;20041;-55
2023/08/07 08:00:31;;;;;;;9.43;2.20;;;17.30;78.10;;;;;;5006026;28;20046;-54
2023/08/07 08:02:57;;;;;;;4.90;2.17;;;17.30;78.00;;;;;;5008423;28;20038;-50
2023/08/07 08:05:24;;;;;;;5.65;2.38;;;17.40;77.30;;;;;;5006703;28;20057;-54
2023/08/07 08:07:51;;;;;;;7.70;2.58;;;17.40;76.80;;;;;;5005143;28;20487;-54
2023/08/07 08:10:18;;;;;;;9.63;3.65;;;17.50;76.90;;;;;;5008548;28;20069;-51
2023/08/07 08:12:45;;;;;;;5.68;2.28;;;17.60;77.40;;;;;;5007445;28;20451;-54
2023/08/07 08:15:12;;;;;;;6.00;3.08;;;17.60;76.60;;;;;;5010377;28;20042;-50
2023/08/07 08:17:39;;;;;;;6.93;2.33;;;17.70;76.30;;;;;;5004569;28;20070;-53
2023/08/07 08:20:09;;;;;;;5.43;2.10;;;17.70;76.10;;;;;;5008649;28;20049;-50
2023/08/07 08:22:36;;;;;;;4.65;1.83;;;17.80;75.50;;;;;;5011329;28;20075;-54
2023/08/07 08:25:04;;;;;;;8.27;2.03;;;17.80;75.30;;;;;;5012629;28;20045;-54
2023/08/07 08:27:31;;;;;;;6.53;1.73;;;17.80;74.30;;;;;;5011555;28;20108;-54
2023/08/07 08:29:58;;;;;;;4.03;1.73;;;17.80;73.90;;;;;;5011166;28;20038;-54
2023/08/07 08:32:24;;;;;;;10.43;4.18;;;17.80;73.70;;;;;;5010154;28;20069;-54
2023/08/07 08:34:51;;;;;;;9.25;2.00;;;17.80;73.40;;;;;;5012994;28;20042;-54
2023/08/07 08:37:18;;;;;;;4.43;2.30;;;17.70;73.30;;;;;;5011112;28;20065;-54
2023/08/07 08:39:44;;;;;;;5.00;2.03;;;17.70;73.50;;;;;;5011613;28;20543;-54
2023/08/07 08:42:13;;;;;;;4.55;1.88;;;17.70;73.70;;;;;;5004484;28;20042;-54
2023/08/07 08:44:40;;;;;;;5.20;1.73;;;17.70;74.20;;;;;;5011672;28;20128;-54
2023/08/07 08:47:10;;;;;;;4.78;2.03;;;17.70;75.00;;;;;;5010883;28;20065;-54
2023/08/07 08:49:45;;;;;;;4.95;1.40;;;17.70;75.70;;;;;;5010235;28;20046;-50
2023/08/07 08:52:13;;;;;;;5.53;1.55;;;17.80;76.00;;;;;;5011373;28;20092;-54
2023/08/07 08:54:40;;;;;;;3.67;1.88;;;17.90;76.10;;;;;;5012030;28;20463;-50
2023/08/07 08:57:07;;;;;;;5.75;1.80;;;18.00;75.80;;;;;;5009249;28;20093;-53
2023/08/07 08:59:34;;;;;;;6.68;2.20;;;18.10;75.50;;;;;;5008866;28;20100;-54
2023/08/07 09:02:01;;;;;;;5.05;1.50;;;18.20;75.00;;;;;;5004279;28;20049;-52
2023/08/07 09:04:28;;;;;;;4.35;1.50;;;18.30;74.20;;;;;;5012253;28;20049;-54
2023/08/07 09:06:55;;;;;;;5.68;2.00;;;18.30;74.40;;;;;;5011476;28;20038;-54
2023/08/07 09:09:23;;;;;;;6.15;2.28;;;18.40;74.60;;;;;;5009140;28;20038;-53
2023/08/07 09:11:51;;;;;;;2.78;1.63;;;18.50;74.10;;;;;;5011138;28;20500;-52
2023/08/07 09:14:26;;;;;;;6.63;2.60;;;18.50;74.20;;;;;;5012373;28;20138;-53
2023/08/07 09:16:53;;;;;;;7.20;2.67;;;18.60;74.30;;;;;;5000624;28;20081;-53
2023/08/07 09:19:23;;;;;;;2.53;1.50;;;18.60;73.50;;;;;;5001781;28;20049;-52
2023/08/07 09:21:49;;;;;;;6.03;1.92;;;18.70;74.00;;;;;;5010836;28;20117;-51
2023/08/07 09:24:18;;;;;;;3.85;1.83;;;18.70;72.90;;;;;;5010586;28;20531;-50
2023/08/07 09:26:50;;;;;;;4.78;1.83;;;18.80;72.40;;;;;;5009455;28;20045;-54
2023/08/07 09:29:17;;;;;;;7.07;1.70;;;18.80;72.60;;;;;;5009349;28;20046;-54
2023/08/07 09:31:46;;;;;;;4.07;1.45;;;18.80;72.30;;;;;;5010766;28;20041;-54
2023/08/07 09:34:16;;;;;;;2.67;1.27;;;18.80;72.10;;;;;;5006848;28;20073;-53
2023/08/07 09:36:43;;;;;;;4.30;2.10;;;18.80;70.80;;;;;;5010163;28;20096;-51
2023/08/07 09:39:12;;;;;;;2.83;1.55;;;18.80;69.60;;;;;;5008765;28;20064;-54
2023/08/07 09:41:38;;;;;;;4.28;1.60;;;18.80;69.80;;;;;;5010463;28;20074;-51
2023/08/07 09:44:10;;;;;;;3.38;1.42;;;18.80;69.30;;;;;;5006749;28;20049;-54
2023/08/07 09:46:44;;;;;;;5.88;1.45;;;18.80;69.60;;;;;;5007242;28;20078;-50
2023/08/07 09:49:11;;;;;;;5.07;1.65;;;18.90;68.70;;;;;;5010499;28;20139;-54
2023/08/07 09:51:45;;;;;;;3.15;1.17;;;18.90;68.50;;;;;;5010275;28;20049;-51
2023/08/07 09:54:12;;;;;;;4.05;1.60;;;19.00;68.00;;;;;;5010821;28;20412;-54
2023/08/07 09:56:45;;;;;;;1.75;1.02;;;19.10;68.00;;;;;;5010339;28;20069;-55
2023/08/07 09:59:12;;;;;;;4.05;1.58;;;19.20;67.00;;;;;;5008818;28;20132;-54
2023/08/07 10:01:42;;;;;;;4.32;1.20;;;19.30;67.10;;;;;;5009348;28;20153;-54
2023/08/07 10:04:14;;;;;;;4.78;1.65;;;19.30;65.90;;;;;;5010176;28;20054;-54
2023/08/07 10:06:43;;;;;;;3.95;1.30;;;19.50;67.50;;;;;;5009062;28;20562;-54
2023/08/07 10:09:10;;;;;;;6.47;1.70;;;19.60;65.90;;;;;;5009572;28;20054;-55
2023/08/07 10:11:39;;;;;;;5.53;1.40;;;19.70;65.00;;;;;;5009754;28;20079;-52
2023/08/07 10:14:06;;;;;;;5.63;2.75;;;19.70;64.60;;;;;;5009495;28;20052;-54
2023/08/07 10:16:33;;;;;;;4.05;1.35;;;19.70;64.70;;;;;;5008969;28;20149;-54
2023/08/07 10:19:00;;;;;;;4.65;1.17;;;19.70;64.20;;;;;;5007698;28;20041;-53
2023/08/07 10:21:27;;;;;;;1.65;1.00;;;19.80;64.60;;;;;;5009672;28;20481;-55
2023/08/07 10:23:55;;;;;;;2.83;1.42;;;19.80;64.10;;;;;;5009453;28;20117;-51
2023/08/07 10:26:23;;;;;;;1.92;1.20;;;19.80;64.10;;;;;;5008293;28;20049;-55
2023/08/07 10:28:53;;;;;;;3.28;1.63;;;19.90;64.10;;;;;;5007212;28;20054;-54
2023/08/07 10:31:23;;;;;;;2.88;1.38;;;19.90;63.50;;;;;;5009153;28;20046;-53
2023/08/07 10:33:51;;;;;;;2.38;1.30;;;20.00;63.20;;;;;;5009420;28;20144;-55
2023/08/07 10:36:18;;;;;;;3.75;1.25;;;20.00;63.00;;;;;;5009629;28;20069;-54
2023/08/07 10:38:49;;;;;;;3.60;1.50;;;20.10;61.50;;;;;;5007025;28;20135;-53
2023/08/07 10:41:18;;;;;;;2.58;1.77;;;20.10;61.20;;;;;;5004911;28;20077;-51
2023/08/07 10:43:45;;;;;;;3.80;2.10;;;20.10;60.70;;;;;;5008996;28;20121;-53
2023/08/07 10:46:19;;;;;;;3.33;1.83;;;20.20;60.00;;;;;;5009252;28;20057;-55
2023/08/07 10:48:59;;;;;;;4.20;1.40;;;20.20;60.10;;;;;;5007319;28;20050;-50
2023/08/07 10:51:33;;;;;;;3.08;2.00;;;20.30;59.70;;;;;;5009314;28;20041;-53
2023/08/07 10:54:01;;;;;;;4.95;1.23;;;20.40;59.50;;;;;;4991922;28;20042;-54
2023/08/07 10:56:33;;;;;;;5.57;1.77;;;20.50;58.90;;;;;;5010335;28;20077;-52
2023/08/07 10:59:09;;;;;;;4.10;2.05;;;20.50;59.10;;;;;;5008975;28;20038;-55
2023/08/07 11:01:39;;;;;;;2.42;1.52;;;20.60;59.90;;;;;;5004238;28;20052;-53
2023/08/07 11:04:13;;;;;;;3.15;1.65;;;20.60;58.60;;;;;;5010949;28;20054;-50
2023/08/07 11:06:42;;;;;;;3.47;1.77;;;20.70;58.20;;;;;;5008349;28;20037;-50
2023/08/07 11:09:10;;;;;;;3.85;1.63;;;20.80;58.30;;;;;;5008194;28;20511;-51
2023/08/07 11:11:47;;;;;;;3.20;1.23;;;20.90;57.70;;;;;;4992078;28;20045;-52
2023/08/07 11:14:16;;;;;;;2.90;1.95;;;21.00;57.10;;;;;;5008660;28;20049;-51
2023/08/07 11:16:44;;;;;;;6.60;2.05;;;21.00;57.20;;;;;;5004384;28;20109;-54
2023/08/07 11:19:16;;;;;;;2.60;1.63;;;21.10;56.40;;;;;;5006864;28;20049;-55
2023/08/07 11:21:43;;;;;;;4.63;1.60;;;21.10;57.10;;;;;;5009067;28;20049;-52
2023/08/07 11:24:13;;;;;;;4.88;1.67;;;21.10;57.40;;;;;;5008492;28;20057;-51
2023/08/07 11:26:44;;;;;;;3.78;1.50;;;21.10;56.60;;;;;;5009403;28;20057;-51
2023/08/07 11:29:16;;;;;;;2.72;1.50;;;21.10;56.80;;;;;;5005032;28;20520;-55
2023/08/07 11:31:43;;;;;;;2.38;1.75;;;21.20;56.90;;;;;;5011998;28;20177;-53
2023/08/07 11:34:10;;;;;;;3.35;2.15;;;21.20;57.00;;;;;;5002346;28;20046;-51
2023/08/07 11:36:44;;;;;;;3.85;1.40;;;21.20;55.90;;;;;;5002777;28;20501;-55
2023/08/07 11:39:11;;;;;;;2.47;1.65;;;21.30;55.40;;;;;;5001680;28;20526;-55
2023/08/07 11:41:40;;;;;;;2.60;1.50;;;21.30;55.40;;;;;;5002357;28;20385;-55
2023/08/07 11:44:08;;;;;;;1.90;1.60;;;21.30;54.90;;;;;;5008749;28;20096;-54
2023/08/07 11:46:36;;;;;;;3.25;1.60;;;21.40;54.40;;;;;;5003597;28;20042;-53
2023/08/07 11:49:04;;;;;;;6.05;1.85;;;21.40;55.50;;;;;;5005015;28;20463;-53
2023/08/07 11:51:31;;;;;;;4.35;1.77;;;21.50;55.20;;;;;;5007827;28;20066;-55
2023/08/07 11:53:59;;;;;;;3.30;1.40;;;21.50;54.70;;;;;;5012270;28;20096;-55
2023/08/07 11:56:25;;;;;;;2.45;1.48;;;21.60;54.80;;;;;;5012792;28;20042;-55
2023/08/07 11:58:53;;;;;;;2.53;1.40;;;21.60;55.70;;;;;;5010035;28;20073;-53
2023/08/07 12:01:22;;;;;;;2.80;1.10;;;21.60;54.40;;;;;;5013949;28;20466;-53
2023/08/07 12:03:53;;;;;;;2.47;1.20;;;21.70;53.30;;;;;;5012999;28;20757;-55
2023/08/07 12:06:20;;;;;;;6.20;1.27;;;21.70;53.20;;;;;;5012380;28;20876;-55
2023/08/07 12:08:51;;;;;;;3.53;1.38;;;21.70;53.20;;;;;;5010091;28;20554;-54
2023/08/07 12:11:18;;;;;;;2.67;1.73;;;21.70;53.20;;;;;;5010502;28;20639;-54
2023/08/07 12:13:45;;;;;;;2.58;1.60;;;21.70;54.20;;;;;;4986914;28;20509;-55
2023/08/07 12:16:15;;;;;;;1.92;1.13;;;21.80;53.20;;;;;;5006842;28;20125;-55
2023/08/07 12:18:46;;;;;;;2.25;1.50;;;21.90;52.50;;;;;;5007761;28;20041;-55
2023/08/07 12:21:16;;;;;;;3.45;1.95;;;21.90;52.70;;;;;;5005399;28;20504;-54
2023/08/07 12:23:44;;;;;;;2.50;1.42;;;22.00;54.00;;;;;;5007164;28;20107;-54
2023/08/07 12:26:10;;;;;;;2.80;2.03;;;22.10;54.10;;;;;;5010848;28;20089;-53
2023/08/07 12:28:37;;;;;;;9.15;3.28;;;22.30;53.70;;;;;;5006391;28;20555;-54
2023/08/07 12:31:06;;;;;;;4.53;2.33;;;22.30;52.90;;;;;;5008105;28;20223;-55
2023/08/07 12:33:33;;;;;;;2.60;1.80;;;22.40;52.30;;;;;;5004613;28;20048;-55
2023/08/07 12:36:01;;;;;;;3.25;1.60;;;22.40;52.00;;;;;;5003275;28;20047;-55
2023/08/07 12:38:29;;;;;;;1.85;1.33;;;22.40;52.80;;;;;;5007712;28;20626;-54
2023/08/07 12:40:55;;;;;;;1.73;1.52;;;22.40;51.70;;;;;;5004239;28;20041;-55
2023/08/07 12:43:22;;;;;;;4.13;1.33;;;22.40;51.70;;;;;;5005039;28;20057;-54
2023/08/07 12:45:49;;;;;;;1.73;1.60;;;22.40;52.40;;;;;;5010260;28;20754;-56
2023/08/07 12:48:19;;;;;;;5.57;2.00;;;22.40;51.70;;;;;;5010628;28;20069;-55
2023/08/07 12:50:46;;;;;;;2.78;1.27;;;22.40;52.00;;;;;;5012524;28;20091;-55
2023/08/07 12:53:13;;;;;;;1.52;1.30;;;22.40;52.40;;;;;;5003008;28;20555;-54